Portada
METAR-TAF:

METAR-TAF

Aeropuertos :

Aeropuerto de Chitá-Kadala

Chitá, Rusia

latitud: 52-05N, longitud: 113-29E, altitud: 685 m

Observación

El informe se hizo hace 28 minutos, a las 04:00 UTC
Viento 10 kt del norte
Temperatura 6°C
Humedad 56%
Presión 1007 hPa
Visibilidad 10 km o más

METAR: UIAA 220400Z 35005MPS 9999 NSC 06/M02 Q1007 R29/CLRD70 NOSIG RMK QFE697/0930

Hora: 13:28 (04:28 UTC)

Pronóstico

El informe se hizo hace 2 horas y 28 minutos, a las 02:00 UTC
Pronóstico válido del 22 a las 03 UTC al 23 a las 03 UTC
Viento 12 kt del norte con ráfagas de 23 kt
Visibilidad 10 km o más
Cielo nuboso a una altura de 3000 ft, Cumulonimbus.
Temporalmente
del 22 a las 03 UTC al 22 a las 12 UTC
Visibilidad: 3100 m
Cielo cubierto a una altura de 1400 ft, Cumulonimbus.
chaparrones de nieve

TAF: UIAA 220200Z 2203/2303 35006G12MPS 9999 BKN030CB TEMPO 2203/2212 3100 -SHSN OVC014CB

Observaciones y pronósticos meteorológicos de más de 4000 aeropuertos (mensajes METAR y TAF).

Los puntos amarillos y rojos representan las estaciones disponibles.

Ponga el ratón en el punto deseado para ver el nombre de la estación.

Haga clic para ver las observaciones y los pronósticos meteorológicos.

Para cambiar el mapa : haga clic en los botones verdes con una cruz de color negro para hacer un zoom, en el botón verde con un guión para alejar o en las flechas verdes para mapas adyacentes.


METAR-TAF: